sensor_id;sensor_type;location;lat;lon;timestamp;P1;durP1;ratioP1;P2;durP2;ratioP2
11453;SDS011;5783;55.174;61.310;2024-01-15T07:54:19;9.10;;;7.00;;
11453;SDS011;5783;55.174;61.310;2024-01-15T07:59:37;14.30;;;7.90;;
11453;SDS011;5783;55.174;61.310;2024-01-15T08:07:18;8.30;;;6.95;;
11453;SDS011;5783;55.174;61.310;2024-01-15T08:12:24;13.27;;;11.67;;
11453;SDS011;5783;55.174;61.310;2024-01-15T08:14:53;14.57;;;11.80;;
11453;SDS011;5783;55.174;61.310;2024-01-15T08:17:23;14.40;;;11.95;;
11453;SDS011;5783;55.174;61.310;2024-01-15T08:20:11;12.73;;;10.40;;
11453;SDS011;5783;55.174;61.310;2024-01-15T08:22:42;10.80;;;9.60;;
11453;SDS011;5783;55.174;61.310;2024-01-15T08:25:10;11.27;;;9.57;;
11453;SDS011;5783;55.174;61.310;2024-01-15T08:27:39;9.60;;;8.30;;
11453;SDS011;5783;55.174;61.310;2024-01-15T08:30:09;9.77;;;8.13;;
11453;SDS011;5783;55.174;61.310;2024-01-15T08:32:38;8.60;;;7.20;;
11453;SDS011;5783;55.174;61.310;2024-01-15T08:35:27;8.63;;;7.30;;
11453;SDS011;5783;55.174;61.310;2024-01-15T08:37:55;8.33;;;7.10;;
11453;SDS011;5783;55.174;61.310;2024-01-15T08:40:24;7.07;;;6.37;;
11453;SDS011;5783;55.174;61.310;2024-01-15T08:42:55;7.10;;;6.30;;
11453;SDS011;5783;55.174;61.310;2024-01-15T08:45:23;6.30;;;5.70;;
11453;SDS011;5783;55.174;61.310;2024-01-15T08:47:52;6.90;;;5.50;;
11453;SDS011;5783;55.174;61.310;2024-01-15T08:50:21;6.25;;;5.35;;
11453;SDS011;5783;55.174;61.310;2024-01-15T08:52:49;5.65;;;4.90;;
11453;SDS011;5783;55.174;61.310;2024-01-15T08:55:18;6.00;;;4.70;;
11453;SDS011;5783;55.174;61.310;2024-01-15T08:57:49;4.60;;;4.10;;
11453;SDS011;5783;55.174;61.310;2024-01-15T09:00:18;4.30;;;3.90;;
11453;SDS011;5783;55.174;61.310;2024-01-15T09:02:46;4.40;;;3.90;;
11453;SDS011;5783;55.174;61.310;2024-01-15T09:05:15;4.90;;;3.80;;
11453;SDS011;5783;55.174;61.310;2024-01-15T09:07:44;3.87;;;3.40;;
11453;SDS011;5783;55.174;61.310;2024-01-15T09:10:12;3.40;;;3.10;;
11453;SDS011;5783;55.174;61.310;2024-01-15T09:12:41;2.90;;;2.50;;
11453;SDS011;5783;55.174;61.310;2024-01-15T09:15:10;2.97;;;2.63;;
11453;SDS011;5783;55.174;61.310;2024-01-15T09:17:40;3.13;;;2.50;;
11453;SDS011;5783;55.174;61.310;2024-01-15T09:20:09;4.23;;;2.30;;
11453;SDS011;5783;55.174;61.310;2024-01-15T09:22:38;4.20;;;2.40;;
11453;SDS011;5783;55.174;61.310;2024-01-15T09:25:26;3.00;;;2.33;;
11453;SDS011;5783;55.174;61.310;2024-01-15T09:27:55;2.73;;;2.10;;
11453;SDS011;5783;55.174;61.310;2024-01-15T09:30:24;2.40;;;2.20;;
11453;SDS011;5783;55.174;61.310;2024-01-15T09:32:53;2.80;;;2.20;;
11453;SDS011;5783;55.174;61.310;2024-01-15T09:35:23;2.23;;;1.90;;
11453;SDS011;5783;55.174;61.310;2024-01-15T09:37:52;2.20;;;2.00;;
11453;SDS011;5783;55.174;61.310;2024-01-15T09:40:21;2.00;;;1.83;;
11453;SDS011;5783;55.174;61.310;2024-01-15T09:42:54;2.37;;;1.80;;
11453;SDS011;5783;55.174;61.310;2024-01-15T09:45:23;1.57;;;1.47;;
11453;SDS011;5783;55.174;61.310;2024-01-15T09:47:52;2.03;;;1.83;;
11453;SDS011;5783;55.174;61.310;2024-01-15T09:50:20;2.10;;;1.80;;
11453;SDS011;5783;55.174;61.310;2024-01-15T09:52:49;1.87;;;1.67;;
11453;SDS011;5783;55.174;61.310;2024-01-15T09:55:18;1.83;;;1.53;;
11453;SDS011;5783;55.174;61.310;2024-01-15T09:57:47;2.13;;;1.73;;
11453;SDS011;5783;55.174;61.310;2024-01-15T10:03:09;1.87;;;1.70;;
11453;SDS011;5783;55.174;61.310;2024-01-15T10:05:39;1.90;;;1.70;;
11453;SDS011;5783;55.174;61.310;2024-01-15T10:08:07;1.73;;;1.50;;
11453;SDS011;5783;55.174;61.310;2024-01-15T10:10:37;2.50;;;1.75;;
11453;SDS011;5783;55.174;61.310;2024-01-15T10:13:05;1.60;;;1.50;;
11453;SDS011;5783;55.174;61.310;2024-01-15T10:15:35;1.40;;;1.27;;
11453;SDS011;5783;55.174;61.310;2024-01-15T10:18:03;2.00;;;1.50;;
11453;SDS011;5783;55.174;61.310;2024-01-15T10:20:32;1.63;;;1.53;;
11453;SDS011;5783;55.174;61.310;2024-01-15T10:23:01;2.30;;;1.43;;
11453;SDS011;5783;55.174;61.310;2024-01-15T10:25:29;2.23;;;1.30;;
11453;SDS011;5783;55.174;61.310;2024-01-15T10:30:47;1.50;;;1.40;;
11453;SDS011;5783;55.174;61.310;2024-01-15T10:33:19;2.10;;;1.63;;
11453;SDS011;5783;55.174;61.310;2024-01-15T10:35:47;1.53;;;1.43;;
11453;SDS011;5783;55.174;61.310;2024-01-15T10:38:16;3.95;;;1.40;;
11453;SDS011;5783;55.174;61.310;2024-01-15T10:40:46;7.47;;;1.60;;
11453;SDS011;5783;55.174;61.310;2024-01-15T10:43:15;2.03;;;1.50;;
11453;SDS011;5783;55.174;61.310;2024-01-15T10:48:32;1.50;;;1.40;;
11453;SDS011;5783;55.174;61.310;2024-01-15T10:51:02;15.93;;;2.83;;
11453;SDS011;5783;55.174;61.310;2024-01-15T10:53:32;1.20;;;1.10;;
11453;SDS011;5783;55.174;61.310;2024-01-15T10:58:30;1.60;;;1.50;;
11453;SDS011;5783;55.174;61.310;2024-01-15T11:01:33;1.50;;;1.40;;
11453;SDS011;5783;55.174;61.310;2024-01-15T11:05:59;1.70;;;1.60;;
11453;SDS011;5783;55.174;61.310;2024-01-15T11:08:29;2.20;;;1.80;;
11453;SDS011;5783;55.174;61.310;2024-01-15T11:10:59;1.93;;;1.70;;
11453;SDS011;5783;55.174;61.310;2024-01-15T11:16:18;1.90;;;1.50;;
11453;SDS011;5783;55.174;61.310;2024-01-15T11:21:41;2.40;;;1.73;;
11453;SDS011;5783;55.174;61.310;2024-01-15T11:24:08;1.50;;;1.40;;
11453;SDS011;5783;55.174;61.310;2024-01-15T11:26:44;1.70;;;1.60;;
11453;SDS011;5783;55.174;61.310;2024-01-15T11:32:01;2.23;;;1.60;;
11453;SDS011;5783;55.174;61.310;2024-01-15T11:43:05;1.63;;;1.53;;
11453;SDS011;5783;55.174;61.310;2024-01-15T11:45:35;2.20;;;1.70;;
11453;SDS011;5783;55.174;61.310;2024-01-15T11:50:58;2.27;;;1.70;;
11453;SDS011;5783;55.174;61.310;2024-01-15T11:56:20;1.87;;;1.67;;
11453;SDS011;5783;55.174;61.310;2024-01-15T11:58:51;2.25;;;1.65;;
11453;SDS011;5783;55.174;61.310;2024-01-15T12:01:40;2.17;;;1.70;;
11453;SDS011;5783;55.174;61.310;2024-01-15T12:04:09;2.17;;;1.73;;
11453;SDS011;5783;55.174;61.310;2024-01-15T12:06:39;2.33;;;1.80;;
11453;SDS011;5783;55.174;61.310;2024-01-15T12:09:08;2.03;;;1.80;;
11453;SDS011;5783;55.174;61.310;2024-01-15T12:11:37;2.00;;;1.80;;
11453;SDS011;5783;55.174;61.310;2024-01-15T12:14:10;2.10;;;1.77;;
11453;SDS011;5783;55.174;61.310;2024-01-15T12:16:39;1.70;;;1.60;;
11453;SDS011;5783;55.174;61.310;2024-01-15T12:19:10;1.77;;;1.67;;
11453;SDS011;5783;55.174;61.310;2024-01-15T12:21:39;2.03;;;1.60;;
11453;SDS011;5783;55.174;61.310;2024-01-15T12:24:08;2.03;;;1.60;;
11453;SDS011;5783;55.174;61.310;2024-01-15T12:26:38;2.00;;;1.73;;
11453;SDS011;5783;55.174;61.310;2024-01-15T12:29:07;2.23;;;1.73;;
11453;SDS011;5783;55.174;61.310;2024-01-15T12:31:36;2.10;;;1.80;;
11453;SDS011;5783;55.174;61.310;2024-01-15T12:34:06;1.97;;;1.70;;
11453;SDS011;5783;55.174;61.310;2024-01-15T12:36:35;1.87;;;1.70;;
11453;SDS011;5783;55.174;61.310;2024-01-15T12:39:04;2.30;;;1.70;;
11453;SDS011;5783;55.174;61.310;2024-01-15T12:41:34;3.00;;;2.00;;
11453;SDS011;5783;55.174;61.310;2024-01-15T12:44:04;3.15;;;1.90;;
11453;SDS011;5783;55.174;61.310;2024-01-15T12:46:34;2.60;;;2.00;;
11453;SDS011;5783;55.174;61.310;2024-01-15T12:49:03;2.00;;;1.73;;
11453;SDS011;5783;55.174;61.310;2024-01-15T12:51:34;3.40;;;2.00;;
11453;SDS011;5783;55.174;61.310;2024-01-15T12:54:04;2.50;;;2.30;;
11453;SDS011;5783;55.174;61.310;2024-01-15T12:56:34;3.10;;;2.20;;
11453;SDS011;5783;55.174;61.310;2024-01-15T12:59:03;3.30;;;2.60;;
11453;SDS011;5783;55.174;61.310;2024-01-15T13:01:32;4.15;;;2.70;;
11453;SDS011;5783;55.174;61.310;2024-01-15T13:04:02;2.67;;;2.47;;
11453;SDS011;5783;55.174;61.310;2024-01-15T13:06:32;4.05;;;2.60;;
11453;SDS011;5783;55.174;61.310;2024-01-15T13:09:03;3.20;;;2.50;;
11453;SDS011;5783;55.174;61.310;2024-01-15T13:11:32;2.90;;;2.23;;
11453;SDS011;5783;55.174;61.310;2024-01-15T13:14:02;3.07;;;2.20;;
11453;SDS011;5783;55.174;61.310;2024-01-15T13:16:31;4.45;;;2.15;;
11453;SDS011;5783;55.174;61.310;2024-01-15T13:19:01;3.50;;;2.20;;
11453;SDS011;5783;55.174;61.310;2024-01-15T13:21:29;2.60;;;2.05;;
11453;SDS011;5783;55.174;61.310;2024-01-15T13:26:27;2.80;;;2.20;;
11453;SDS011;5783;55.174;61.310;2024-01-15T13:31:25;2.00;;;1.80;;
11453;SDS011;5783;55.174;61.310;2024-01-15T13:33:54;2.60;;;2.00;;
11453;SDS011;5783;55.174;61.310;2024-01-15T13:36:24;3.15;;;2.00;;
11453;SDS011;5783;55.174;61.310;2024-01-15T13:38:54;2.15;;;1.90;;
11453;SDS011;5783;55.174;61.310;2024-01-15T13:44:12;1.90;;;1.70;;
11453;SDS011;5783;55.174;61.310;2024-01-15T13:46:41;2.07;;;1.87;;
11453;SDS011;5783;55.174;61.310;2024-01-15T13:49:10;4.07;;;2.23;;
11453;SDS011;5783;55.174;61.310;2024-01-15T13:51:40;3.17;;;2.00;;
11453;SDS011;5783;55.174;61.310;2024-01-15T13:54:09;2.15;;;1.85;;
11453;SDS011;5783;55.174;61.310;2024-01-15T13:56:38;2.10;;;1.90;;
11453;SDS011;5783;55.174;61.310;2024-01-15T13:59:08;2.50;;;1.90;;
11453;SDS011;5783;55.174;61.310;2024-01-15T14:01:38;2.20;;;1.80;;
11453;SDS011;5783;55.174;61.310;2024-01-15T14:04:07;1.95;;;1.60;;
11453;SDS011;5783;55.174;61.310;2024-01-15T14:06:36;2.15;;;1.90;;
11453;SDS011;5783;55.174;61.310;2024-01-15T14:09:05;3.70;;;1.90;;
11453;SDS011;5783;55.174;61.310;2024-01-15T14:11:36;5.40;;;1.90;;
11453;SDS011;5783;55.174;61.310;2024-01-15T14:14:06;6.20;;;2.10;;
11453;SDS011;5783;55.174;61.310;2024-01-15T14:16:35;4.30;;;1.90;;
11453;SDS011;5783;55.174;61.310;2024-01-15T14:19:04;3.20;;;2.10;;
11453;SDS011;5783;55.174;61.310;2024-01-15T14:21:35;2.77;;;2.13;;
11453;SDS011;5783;55.174;61.310;2024-01-15T14:24:04;2.00;;;1.70;;
11453;SDS011;5783;55.174;61.310;2024-01-15T14:26:33;2.10;;;1.80;;
11453;SDS011;5783;55.174;61.310;2024-01-15T14:29:02;2.30;;;2.10;;
11453;SDS011;5783;55.174;61.310;2024-01-15T14:31:32;2.55;;;1.90;;
11453;SDS011;5783;55.174;61.310;2024-01-15T14:34:01;2.30;;;1.80;;
11453;SDS011;5783;55.174;61.310;2024-01-15T14:36:31;2.25;;;1.75;;
11453;SDS011;5783;55.174;61.310;2024-01-15T14:39:00;1.93;;;1.80;;
11453;SDS011;5783;55.174;61.310;2024-01-15T14:41:29;2.60;;;1.80;;
11453;SDS011;5783;55.174;61.310;2024-01-15T14:43:59;2.00;;;1.80;;
11453;SDS011;5783;55.174;61.310;2024-01-15T14:46:28;4.80;;;2.50;;
11453;SDS011;5783;55.174;61.310;2024-01-15T14:49:13;4.70;;;2.40;;
11453;SDS011;5783;55.174;61.310;2024-01-15T14:51:43;2.97;;;1.97;;
11453;SDS011;5783;55.174;61.310;2024-01-15T14:54:12;2.30;;;2.10;;
11453;SDS011;5783;55.174;61.310;2024-01-15T14:56:42;2.50;;;2.10;;
11453;SDS011;5783;55.174;61.310;2024-01-15T15:01:40;4.70;;;2.20;;
11453;SDS011;5783;55.174;61.310;2024-01-15T20:16:41;2.35;;;2.05;;
11453;SDS011;5783;55.174;61.310;2024-01-15T20:19:11;5.75;;;2.80;;
11453;SDS011;5783;55.174;61.310;2024-01-15T20:24:08;3.20;;;2.10;;
11453;SDS011;5783;55.174;61.310;2024-01-15T20:48:49;2.60;;;2.40;;
11453;SDS011;5783;55.174;61.310;2024-01-15T21:01:10;5.70;;;2.60;;
11453;SDS011;5783;55.174;61.310;2024-01-15T21:06:08;2.90;;;2.30;;
11453;SDS011;5783;55.174;61.310;2024-01-15T21:11:07;4.20;;;2.70;;
11453;SDS011;5783;55.174;61.310;2024-01-15T21:13:35;3.45;;;2.60;;
11453;SDS011;5783;55.174;61.310;2024-01-15T21:16:04;6.60;;;3.00;;
11453;SDS011;5783;55.174;61.310;2024-01-15T21:21:01;3.90;;;2.90;;
11453;SDS011;5783;55.174;61.310;2024-01-15T21:23:30;8.10;;;3.30;;
11453;SDS011;5783;55.174;61.310;2024-01-15T21:26:00;4.58;;;3.08;;
11453;SDS011;5783;55.174;61.310;2024-01-15T21:28:30;7.33;;;3.45;;
11453;SDS011;5783;55.174;61.310;2024-01-15T21:30:59;11.20;;;4.10;;
11453;SDS011;5783;55.174;61.310;2024-01-15T21:35:57;9.13;;;3.15;;
11453;SDS011;5783;55.174;61.310;2024-01-15T21:38:27;10.65;;;3.80;;
11453;SDS011;5783;55.174;61.310;2024-01-15T21:40:55;7.17;;;3.75;;
11453;SDS011;5783;55.174;61.310;2024-01-15T21:45:53;4.10;;;3.10;;
11453;SDS011;5783;55.174;61.310;2024-01-15T21:53:18;3.80;;;3.00;;
11453;SDS011;5783;55.174;61.310;2024-01-15T22:15:35;3.80;;;3.30;;
11453;SDS011;5783;55.174;61.310;2024-01-15T22:20:33;5.15;;;3.52;;
11453;SDS011;5783;55.174;61.310;2024-01-15T22:23:02;5.40;;;3.87;;
11453;SDS011;5783;55.174;61.310;2024-01-15T22:25:31;5.80;;;3.65;;
11453;SDS011;5783;55.174;61.310;2024-01-15T22:27:59;5.25;;;3.50;;
11453;SDS011;5783;55.174;61.310;2024-01-15T22:32:58;6.20;;;3.80;;
11453;SDS011;5783;55.174;61.310;2024-01-15T22:35:26;5.80;;;3.58;;
11453;SDS011;5783;55.174;61.310;2024-01-15T22:37:56;5.62;;;3.65;;
11453;SDS011;5783;55.174;61.310;2024-01-15T22:40:26;4.57;;;3.27;;
11453;SDS011;5783;55.174;61.310;2024-01-15T22:42:54;8.08;;;3.95;;
11453;SDS011;5783;55.174;61.310;2024-01-15T22:45:23;4.70;;;3.30;;
11453;SDS011;5783;55.174;61.310;2024-01-15T22:50:20;7.28;;;3.92;;
11453;SDS011;5783;55.174;61.310;2024-01-15T22:52:49;5.77;;;3.60;;
11453;SDS011;5783;55.174;61.310;2024-01-15T22:55:18;6.00;;;3.40;;
11453;SDS011;5783;55.174;61.310;2024-01-15T22:57:46;4.60;;;3.40;;
11453;SDS011;5783;55.174;61.310;2024-01-15T23:02:45;6.00;;;3.90;;
11453;SDS011;5783;55.174;61.310;2024-01-15T23:05:15;6.55;;;3.70;;
11453;SDS011;5783;55.174;61.310;2024-01-15T23:07:45;4.87;;;3.72;;
11453;SDS011;5783;55.174;61.310;2024-01-15T23:10:13;4.67;;;3.72;;
11453;SDS011;5783;55.174;61.310;2024-01-15T23:15:14;6.22;;;4.12;;
11453;SDS011;5783;55.174;61.310;2024-01-15T23:17:42;4.95;;;3.40;;
11453;SDS011;5783;55.174;61.310;2024-01-15T23:20:12;32.75;;;7.40;;
11453;SDS011;5783;55.174;61.310;2024-01-15T23:22:40;3.87;;;3.37;;
11453;SDS011;5783;55.174;61.310;2024-01-15T23:25:10;4.53;;;3.52;;
11453;SDS011;5783;55.174;61.310;2024-01-15T23:27:39;5.10;;;4.00;;
11453;SDS011;5783;55.174;61.310;2024-01-15T23:32:36;5.62;;;3.70;;
11453;SDS011;5783;55.174;61.310;2024-01-15T23:35:07;5.92;;;3.58;;
11453;SDS011;5783;55.174;61.310;2024-01-15T23:37:35;4.78;;;3.67;;
11453;SDS011;5783;55.174;61.310;2024-01-15T23:40:05;5.40;;;4.10;;
11453;SDS011;5783;55.174;61.310;2024-01-15T23:42:33;6.92;;;4.33;;
11453;SDS011;5783;55.174;61.310;2024-01-15T23:45:03;5.00;;;3.60;;
11453;SDS011;5783;55.174;61.310;2024-01-15T23:47:32;5.30;;;3.90;;
11453;SDS011;5783;55.174;61.310;2024-01-15T23:50:00;6.35;;;4.00;;
11453;SDS011;5783;55.174;61.310;2024-01-15T23:52:30;4.55;;;3.60;;
11453;SDS011;5783;55.174;61.310;2024-01-15T23:54:59;13.80;;;5.00;;
11453;SDS011;5783;55.174;61.310;2024-01-15T23:57:31;6.30;;;3.90;;
